Terminal Aerodrome Forecast
Issued by NWS

Home | Current Version | Previous Version | Graphics & Text | Print | Product List | Glossary On
Versions: 1 2 3 4 5 6 7 8 9 10 11 12 13 14 15
000
FTUS43 KBIS 141100
TAFJMS
TAF
KJMS 141131Z 1412/1512 31007KT P6SM SCT025 OVC070
     FM141400 35012KT P6SM VCSH OVC035
     FM141800 34014G20KT P6SM BKN050
     FM150000 VRB05KT P6SM SCT050=

USA.gov is the U.S. government's official web portal to all federal, state and local government web resources and services.